Ferndale, MI

2:01 PM EST on January 22, 2017 (GMT -0500)
South Bridge Subdivision | | Change Station
Active Advisory: Dense Fog Advisory

Elev 820 ft 42.61 °N, 83.17 °W | Updated 7 seconds ago

Fog
Fog
48.4 °F
Feels Like 48.4 °F
N
-
Wind Variable Wind from North

Today
High -- | Low -- °F
--% Chance of Precip.
Yesterday
High -- | Low -- °F
Precip. -- in
Pressure 29.62 in
Visibility 1.0 miles
Clouds Overcast 100 ft
Dew Point 46.2 °F
Humidity 100%
Rainfall 0.00 in
Snow Depth Not available.
7:54 AM 5:33 PM
Waning Crescent, 24% visible
METAR KVLL 221854Z AUTO 03004KT 1SM BR OVC001 08/08 A2962 RMK AO2 T00820075
Pressure 29.62 in
Visibility 1.0 miles
Clouds Overcast 100 ft
Dew Point 46.2 °F
Humidity 100%
Rainfall 0.00 in
Snow Depth Not available.
7:54 AM 5:33 PM
Waning Crescent, 24% visible
METAR KVLL 221854Z AUTO 03004KT 1SM BR OVC001 08/08 A2962 RMK AO2 T00820075

Get Your Daily Forecast Email!

Thanks for signing up!

Be on the lookout for a verification email in your inbox.

You'll start receiving the daily forecast at 8 AM.

×

10-Day Weather Forecast

Almanac

Astronomy

Jan. 22, 2017 Rise Set
Actual Time
Civil Twilight
Nautical Twilight
Astronomical Twilight
Moon
Length of Visible Light
Length of Day
Tomorrow will be .
, % of the Moon is Illuminated

Today's Extremes

State Highs State Lows

Community

WunderPhotos

Upload Photos

1,962,540 photos uploaded!

WunderBlog® & News

Nearby

Air Quality

  Air Quality AQ Index Pollutant
Not available.

Snow Depth

Station Depth Elevation

Earthquake Activity

City Distance Mag. Time & Date
Minimum magnitude displayed is 2.5.

Coastal Water Temperatures

Place Temperature

Stations

Nearby Weather Stations

Station Location Temp. Windchill Dew Point Humidity Wind Precip. Elev Updated Type
                   

Watches & Warnings

Dense Fog Advisory
Issued: 11:51 AM EST Jan. 22, 2017 – National Weather Service

... Dense fog advisory now in effect until 10 am EST Monday...

The dense fog advisory is now in effect until 10 am EST Monday.

Hazardous weather...

* widespread dense fog will persist through noon... lifting only
   gradually this afternoon.

* Surface visibilities of less than one quarter of a mile or near
   zero will continue to exist during the early afternoon. Surface
   visibilities are expected to gradually improve to greater than
   one mile for many areas during the late afternoon.

* The environment will remain favorable for the redevelopment of
   fog again tonight. Surface visibilities of a quarter mile or
   less are expected again by this evening.

Impacts...

* dangerous driving conditions in reduced visibilities.

Precautionary/preparedness actions...

If driving... slow down... use low beam headlights... and leave
plenty of distance ahead of you.

* Prepare... plan... and stay informed. Visit
   www.Weather.Gov/DTX/weather_preparedness